Terminal Aerodrome Forecast
Issued by NWS

Home | Current Version | Previous Version | Text Only | Print | Product List | Glossary On
Versions: 1 2 3 4 5 6 7 8 9 10 11 12 13 14 15 16 17 18 19 20 21 22 23 24 25
000
FTUS45 KPSR 302300
TAFIWA
TAF
KIWA 302320Z 0100/0124 30006KT P6SM SKC
     FM010500 12005KT P6SM SKC
     FM012000 25006KT P6SM SKC
      AMD LTD TO CLD VIS AND WIND 0103/0113=

USA.gov is the U.S. government's official web portal to all federal, state and local government web resources and services.